Time;durP1;ratioP1;P1;durP2;ratioP2;P2;SDS_P1;SDS_P2;PMS_P1;PMS_P2;Temp;Humidity;BMP_temperature;BMP_pressure;BME280_temperature;BME280_humidity;BME280_pressure;Samples;Min_cycle;Max_cycle;Signal;HPM_P1;HPM_P2
2023/06/15 00:02:12;;;;;;;3.10;2.83;;;14.90;68.70;;;;;;5119718;27;20656;-72
2023/06/15 00:04:40;;;;;;;3.37;2.80;;;14.90;67.70;;;;;;5119412;27;20955;-72
2023/06/15 00:07:07;;;;;;;3.00;2.63;;;14.90;67.80;;;;;;5120580;27;20662;-72
2023/06/15 00:09:35;;;;;;;3.87;2.77;;;15.00;68.00;;;;;;5120483;27;20722;-72
2023/06/15 00:12:02;;;;;;;4.30;3.90;;;14.90;69.40;;;;;;5122490;27;20694;-72
2023/06/15 00:14:29;;;;;;;3.30;2.50;;;15.10;67.30;;;;;;5110778;27;20948;-72
2023/06/15 00:16:57;;;;;;;3.70;3.40;;;15.10;67.20;;;;;;5118995;27;20688;-72
2023/06/15 00:19:24;;;;;;;2.90;2.70;;;15.10;67.20;;;;;;5120135;27;20625;-72
2023/06/15 00:21:53;;;;;;;3.37;2.60;;;15.10;64.30;;;;;;5121677;27;20660;-72
2023/06/15 00:24:20;;;;;;;3.30;2.70;;;15.20;64.10;;;;;;5121480;27;21253;-72
2023/06/15 00:26:48;;;;;;;4.03;3.50;;;15.20;63.80;;;;;;5119083;27;21065;-72
2023/06/15 00:29:15;;;;;;;4.43;3.37;;;15.30;65.90;;;;;;5118112;27;20623;-72
2023/06/15 00:31:41;;;;;;;2.90;2.70;;;15.30;64.10;;;;;;5121040;27;20652;-72
2023/06/15 00:34:08;;;;;;;2.60;2.40;;;15.30;65.10;;;;;;5121944;27;21190;-72
2023/06/15 00:36:35;;;;;;;2.87;2.50;;;15.10;65.00;;;;;;5120371;27;20726;-71
2023/06/15 00:39:02;;;;;;;3.17;2.87;;;15.10;65.80;;;;;;5118064;27;20643;-71
2023/06/15 00:41:29;;;;;;;8.83;3.00;;;15.00;66.30;;;;;;5118441;27;20637;-71
2023/06/15 00:43:57;;;;;;;3.23;2.93;;;15.00;67.30;;;;;;5121342;27;20679;-71
2023/06/15 00:46:24;;;;;;;2.57;2.37;;;15.00;67.20;;;;;;5120767;27;20645;-72
2023/06/15 00:48:51;;;;;;;5.50;3.30;;;14.90;68.00;;;;;;5120090;27;20622;-72
2023/06/15 00:51:18;;;;;;;2.83;2.47;;;14.80;67.40;;;;;;5117620;27;20638;-72
2023/06/15 00:53:45;;;;;;;3.10;2.80;;;14.90;68.00;;;;;;5118641;27;20616;-72
2023/06/15 00:56:13;;;;;;;3.60;3.00;;;15.00;66.80;;;;;;5109904;27;20654;-72
2023/06/15 00:58:40;;;;;;;4.37;2.93;;;15.10;67.00;;;;;;5118080;27;20613;-72
2023/06/15 01:01:08;;;;;;;4.80;3.27;;;15.30;67.00;;;;;;5119407;27;21299;-72
2023/06/15 01:03:35;;;;;;;2.60;2.40;;;15.20;66.10;;;;;;5120760;27;21277;-72
2023/06/15 01:06:13;;;;;;;2.70;2.40;;;15.30;66.00;;;;;;5120567;27;20656;-72
2023/06/15 01:08:41;;;;;;;3.40;3.10;;;15.30;65.90;;;;;;5117163;27;20647;-73
2023/06/15 01:11:09;;;;;;;4.00;3.10;;;15.10;66.40;;;;;;5118250;27;21011;-72
2023/06/15 01:13:38;;;;;;;3.57;3.23;;;15.10;67.00;;;;;;5121263;27;20704;-72
2023/06/15 01:16:14;;;;;;;3.20;2.90;;;14.90;67.60;;;;;;5120473;27;20678;-72
2023/06/15 01:18:47;;;;;;;3.23;3.00;;;14.80;68.20;;;;;;5110552;27;20625;-72
2023/06/15 01:21:14;;;;;;;3.63;3.23;;;14.80;68.30;;;;;;5116683;27;20644;-72
2023/06/15 01:23:50;;;;;;;4.97;3.63;;;14.90;67.80;;;;;;5121245;27;20652;-72
2023/06/15 01:26:24;;;;;;;2.23;2.03;;;14.80;67.00;;;;;;5121195;27;20648;-72
2023/06/15 01:28:52;;;;;;;2.40;2.20;;;14.80;67.50;;;;;;5109647;27;20629;-72
2023/06/15 01:31:20;;;;;;;3.30;2.77;;;14.80;67.80;;;;;;5117295;27;20660;-73
2023/06/15 01:33:48;;;;;;;3.10;2.57;;;14.70;67.60;;;;;;5120678;27;20616;-72
2023/06/15 01:36:16;;;;;;;3.10;2.60;;;14.60;67.20;;;;;;5120835;27;20750;-72
2023/06/15 01:38:45;;;;;;;2.77;2.50;;;14.60;68.20;;;;;;5118193;27;20625;-72
2023/06/15 01:41:14;;;;;;;4.53;3.07;;;14.70;67.70;;;;;;5116565;27;20647;-72
2023/06/15 01:43:43;;;;;;;3.57;3.27;;;14.70;68.10;;;;;;5118267;27;21036;-72
2023/06/15 01:46:11;;;;;;;4.97;3.40;;;14.60;68.50;;;;;;5119607;27;20734;-72
2023/06/15 01:48:39;;;;;;;3.50;2.53;;;14.50;68.00;;;;;;5120425;27;21179;-72
2023/06/15 01:51:07;;;;;;;6.90;3.83;;;14.40;68.10;;;;;;5108482;27;20701;-72
2023/06/15 01:53:35;;;;;;;3.67;3.00;;;14.40;68.60;;;;;;5116270;27;21006;-72
2023/06/15 01:56:03;;;;;;;2.80;2.60;;;14.40;68.90;;;;;;5118423;27;20756;-72
2023/06/15 01:58:31;;;;;;;3.53;3.20;;;14.40;69.10;;;;;;5116794;27;20977;-72
2023/06/15 02:01:00;;;;;;;4.33;3.10;;;14.50;68.70;;;;;;5117257;27;21247;-72
2023/06/15 02:03:27;;;;;;;3.80;2.97;;;14.40;68.40;;;;;;5120341;27;20670;-73
2023/06/15 02:05:54;;;;;;;3.47;3.17;;;14.30;68.80;;;;;;5120254;27;20650;-72
2023/06/15 02:08:21;;;;;;;3.20;2.93;;;14.20;68.80;;;;;;5116360;27;20613;-72
2023/06/15 02:10:48;;;;;;;3.60;3.30;;;14.20;68.50;;;;;;5116545;27;20638;-73
2023/06/15 02:13:15;;;;;;;3.33;3.03;;;14.20;68.50;;;;;;5118487;27;20627;-72
2023/06/15 02:15:42;;;;;;;4.80;3.30;;;14.30;68.40;;;;;;5120079;27;20644;-72
2023/06/15 02:18:14;;;;;;;4.77;3.13;;;14.20;68.10;;;;;;5120670;27;21198;-72
2023/06/15 02:20:41;;;;;;;3.47;3.17;;;14.30;68.40;;;;;;5107455;28;20636;-72
2023/06/15 02:23:08;;;;;;;3.10;2.90;;;14.30;69.10;;;;;;5116833;27;20680;-72
2023/06/15 02:25:36;;;;;;;3.37;3.07;;;14.20;69.70;;;;;;5119390;27;20659;-72
2023/06/15 02:28:04;;;;;;;3.80;3.47;;;14.20;68.90;;;;;;5120157;27;21431;-72
2023/06/15 02:30:32;;;;;;;5.87;3.50;;;14.10;70.40;;;;;;5117266;27;20747;-72
2023/06/15 02:33:01;;;;;;;5.30;3.67;;;14.00;69.80;;;;;;5116637;27;21237;-72
2023/06/15 02:35:29;;;;;;;3.30;3.00;;;13.90;69.90;;;;;;5115892;28;20683;-72
2023/06/15 02:37:56;;;;;;;2.73;2.53;;;13.90;70.20;;;;;;5108568;28;20620;-72
2023/06/15 02:40:23;;;;;;;3.57;2.83;;;13.80;71.10;;;;;;5116057;27;20751;-72
2023/06/15 02:42:50;;;;;;;2.57;2.30;;;13.80;69.90;;;;;;5120176;28;21189;-73
2023/06/15 02:45:17;;;;;;;3.67;2.90;;;14.00;71.00;;;;;;5115302;28;20675;-72
2023/06/15 02:47:45;;;;;;;3.40;3.00;;;14.00;70.40;;;;;;5116378;28;20627;-72
2023/06/15 02:50:13;;;;;;;3.60;3.30;;;13.80;70.50;;;;;;5119333;27;20610;-72
2023/06/15 02:52:45;;;;;;;3.60;3.23;;;13.90;70.70;;;;;;5119756;27;21170;-72
2023/06/15 02:55:13;;;;;;;2.83;2.63;;;13.80;70.90;;;;;;5108507;28;21160;-72
2023/06/15 02:57:42;;;;;;;5.23;3.43;;;13.80;70.90;;;;;;5116270;27;21493;-72
2023/06/15 03:00:13;;;;;;;7.60;3.27;;;13.70;71.10;;;;;;5121184;27;21342;-72
2023/06/15 03:02:43;;;;;;;3.83;3.00;;;13.70;71.60;;;;;;5116718;28;20988;-72
2023/06/15 03:05:10;;;;;;;3.60;3.23;;;13.60;71.30;;;;;;5118176;28;20665;-72
2023/06/15 03:07:40;;;;;;;4.67;3.73;;;13.60;71.90;;;;;;5119504;27;20612;-72
2023/06/15 03:10:10;;;;;;;4.43;3.30;;;13.60;72.80;;;;;;5118080;28;20739;-72
2023/06/15 03:12:37;;;;;;;4.00;3.60;;;13.60;73.30;;;;;;5115970;28;20632;-72
2023/06/15 03:15:08;;;;;;;3.83;3.07;;;13.70;72.40;;;;;;5116209;28;20621;-72
2023/06/15 03:17:35;;;;;;;6.90;3.40;;;13.70;71.80;;;;;;5108429;27;20635;-72
2023/06/15 03:20:03;;;;;;;4.30;3.50;;;13.80;71.00;;;;;;5115683;28;20616;-72
2023/06/15 03:22:29;;;;;;;5.00;3.60;;;13.80;69.90;;;;;;5117905;28;20633;-72
2023/06/15 03:24:56;;;;;;;2.77;2.57;;;13.80;69.70;;;;;;5119354;27;20684;-72
2023/06/15 03:27:26;;;;;;;2.93;2.50;;;13.70;71.30;;;;;;5118210;27;20742;-72
2023/06/15 03:29:54;;;;;;;5.27;3.70;;;13.60;72.60;;;;;;5115781;28;21071;-72
2023/06/15 03:32:20;;;;;;;3.40;3.10;;;13.50;73.00;;;;;;5116336;28;20742;-72
2023/06/15 03:34:47;;;;;;;2.83;2.23;;;13.50;73.10;;;;;;5118813;28;20639;-72
2023/06/15 03:37:14;;;;;;;6.07;3.53;;;13.50;73.30;;;;;;5119237;28;20675;-72
2023/06/15 03:39:41;;;;;;;3.60;3.30;;;13.60;71.70;;;;;;5116813;28;20662;-72
2023/06/15 03:42:08;;;;;;;4.40;3.90;;;13.60;71.60;;;;;;5115301;27;20650;-72
2023/06/15 03:44:36;;;;;;;4.97;3.67;;;13.50;73.60;;;;;;5122446;27;20787;-72
2023/06/15 03:47:03;;;;;;;3.70;3.40;;;13.40;74.70;;;;;;5109553;27;20662;-71
2023/06/15 03:49:30;;;;;;;3.40;3.10;;;13.30;75.30;;;;;;5119133;27;21185;-72
2023/06/15 03:51:57;;;;;;;4.23;3.40;;;13.20;75.20;;;;;;5121148;27;20741;-72
2023/06/15 03:54:23;;;;;;;3.43;3.13;;;13.10;75.90;;;;;;5122368;27;20611;-72
2023/06/15 03:56:50;;;;;;;4.27;3.43;;;13.10;76.90;;;;;;5122652;27;21078;-71
2023/06/15 03:59:17;;;;;;;4.50;3.20;;;13.20;77.60;;;;;;5119040;27;20710;-72
2023/06/15 04:01:45;;;;;;;5.63;3.10;;;13.20;78.30;;;;;;5122593;27;20653;-72
2023/06/15 04:04:14;;;;;;;5.57;3.63;;;13.30;78.70;;;;;;5120397;27;20653;-72
2023/06/15 04:06:45;;;;;;;3.07;2.77;;;13.30;78.60;;;;;;5119110;27;20705;-72
2023/06/15 04:09:13;;;;;;;2.90;2.50;;;13.30;79.30;;;;;;5119616;27;20631;-71
2023/06/15 04:11:40;;;;;;;4.73;2.77;;;13.40;80.50;;;;;;5122330;27;20638;-72
2023/06/15 04:14:07;;;;;;;3.20;2.90;;;13.50;78.70;;;;;;5122885;27;20626;-72
2023/06/15 04:16:34;;;;;;;5.80;3.60;;;13.70;76.40;;;;;;5118966;27;20658;-72
2023/06/15 04:19:02;;;;;;;4.20;3.80;;;13.80;75.90;;;;;;5118400;27;20637;-72
2023/06/15 04:21:29;;;;;;;5.30;3.93;;;13.90;75.30;;;;;;5120449;27;20745;-72
2023/06/15 04:23:56;;;;;;;4.60;3.83;;;14.00;78.00;;;;;;5122363;27;20717;-72
2023/06/15 04:26:23;;;;;;;3.57;3.23;;;14.00;78.40;;;;;;5121628;27;21601;-72
2023/06/15 04:28:50;;;;;;;5.50;3.40;;;14.00;78.40;;;;;;5118227;27;20623;-71
2023/06/15 04:31:17;;;;;;;4.43;3.60;;;14.10;79.80;;;;;;5118565;27;21127;-72
2023/06/15 04:33:44;;;;;;;7.47;3.43;;;14.20;80.30;;;;;;5121302;27;21218;-72
2023/06/15 04:36:13;;;;;;;3.70;2.70;;;14.30;79.80;;;;;;5121386;27;20700;-72
2023/06/15 04:38:46;;;;;;;4.07;3.20;;;14.40;78.80;;;;;;5120314;27;20624;-73
2023/06/15 04:41:14;;;;;;;2.87;2.67;;;14.60;76.60;;;;;;5118254;27;20650;-74
2023/06/15 04:43:41;;;;;;;2.73;2.53;;;14.80;75.20;;;;;;5119092;27;21033;-74
2023/06/15 04:46:08;;;;;;;3.93;2.97;;;15.00;74.10;;;;;;5120342;27;20643;-74
2023/06/15 04:48:35;;;;;;;3.27;2.97;;;15.10;74.90;;;;;;5121091;27;20613;-74
2023/06/15 04:51:02;;;;;;;3.33;2.60;;;15.20;74.50;;;;;;5118321;27;20653;-73
2023/06/15 04:53:30;;;;;;;5.13;3.40;;;15.40;73.70;;;;;;5118365;27;20633;-74
2023/06/15 04:55:56;;;;;;;4.23;3.80;;;15.50;73.10;;;;;;5119579;27;20660;-76
2023/06/15 04:58:23;;;;;;;3.27;3.00;;;15.70;74.00;;;;;;5121533;27;20746;-74
2023/06/15 05:00:50;;;;;;;3.40;3.03;;;15.80;74.50;;;;;;5118358;27;20652;-74
2023/06/15 05:03:18;;;;;;;3.20;2.90;;;15.90;74.60;;;;;;5120509;27;21002;-72
2023/06/15 05:05:45;;;;;;;2.90;2.70;;;16.10;74.10;;;;;;5121247;27;21129;-72
2023/06/15 05:08:13;;;;;;;3.80;2.77;;;16.30;70.90;;;;;;5119530;27;20679;-72
2023/06/15 05:10:41;;;;;;;4.07;3.00;;;16.50;67.30;;;;;;5117688;27;20647;-71
2023/06/15 05:13:08;;;;;;;3.10;2.80;;;16.70;66.20;;;;;;5118121;27;21171;-71
2023/06/15 05:15:35;;;;;;;4.50;3.37;;;16.90;63.60;;;;;;5120934;27;20656;-71
2023/06/15 05:18:02;;;;;;;3.17;2.97;;;17.00;64.90;;;;;;5120962;27;20617;-71
2023/06/15 05:20:29;;;;;;;3.37;2.50;;;17.20;64.90;;;;;;5118156;27;20659;-71
2023/06/15 05:22:56;;;;;;;3.50;3.03;;;17.40;64.90;;;;;;5117801;27;20624;-71
2023/06/15 05:25:23;;;;;;;3.57;2.90;;;17.40;65.50;;;;;;5117837;27;20682;-71
2023/06/15 05:27:51;;;;;;;3.47;3.17;;;17.50;64.10;;;;;;5120508;27;21118;-71
2023/06/15 05:30:18;;;;;;;3.30;3.10;;;17.70;62.40;;;;;;5119056;27;20668;-72
2023/06/15 05:32:45;;;;;;;3.80;3.20;;;17.90;61.80;;;;;;5117804;27;21163;-71
2023/06/15 05:35:11;;;;;;;3.40;3.10;;;18.00;60.50;;;;;;5117373;27;21219;-71
2023/06/15 05:37:38;;;;;;;3.03;2.73;;;18.00;61.50;;;;;;5118545;27;20634;-72
2023/06/15 05:40:06;;;;;;;2.80;2.53;;;18.10;59.60;;;;;;5119604;27;20618;-72
2023/06/15 05:42:33;;;;;;;4.00;3.23;;;18.20;59.30;;;;;;5120267;27;20621;-72
2023/06/15 05:45:02;;;;;;;3.87;3.50;;;18.30;59.90;;;;;;5116727;27;21202;-72
2023/06/15 05:47:29;;;;;;;6.20;3.23;;;18.20;61.30;;;;;;5116104;27;20660;-72
2023/06/15 05:49:56;;;;;;;3.33;3.00;;;18.00;62.80;;;;;;5118533;27;20635;-71
2023/06/15 05:52:23;;;;;;;3.53;2.97;;;17.80;62.40;;;;;;5120171;27;21160;-71
2023/06/15 05:54:50;;;;;;;3.93;3.50;;;17.70;62.10;;;;;;5119646;27;20622;-72
2023/06/15 05:57:17;;;;;;;3.17;2.80;;;17.60;63.10;;;;;;5116270;27;20655;-72
2023/06/15 05:59:46;;;;;;;3.47;3.10;;;17.90;63.40;;;;;;5120826;27;21087;-72
2023/06/15 06:02:14;;;;;;;3.47;3.17;;;17.80;62.50;;;;;;5117078;27;20651;-72
2023/06/15 06:04:41;;;;;;;3.60;2.80;;;18.10;62.20;;;;;;5117012;27;20648;-72
2023/06/15 06:07:08;;;;;;;3.00;2.80;;;18.20;60.60;;;;;;5117303;27;20656;-72
2023/06/15 06:09:36;;;;;;;3.07;2.77;;;18.10;61.10;;;;;;5119656;27;20619;-72
2023/06/15 06:12:04;;;;;;;3.50;3.20;;;17.90;61.20;;;;;;5119894;27;20658;-72
2023/06/15 06:14:31;;;;;;;3.80;3.27;;;17.70;62.10;;;;;;5116514;27;20627;-71
2023/06/15 06:16:57;;;;;;;3.57;3.27;;;17.80;63.20;;;;;;5116661;27;20657;-72
2023/06/15 06:19:26;;;;;;;4.60;4.27;;;17.90;63.10;;;;;;5118237;27;20620;-72
2023/06/15 06:21:52;;;;;;;3.37;2.97;;;17.80;61.80;;;;;;5119502;27;20650;-72
2023/06/15 06:24:19;;;;;;;4.13;3.07;;;17.70;62.30;;;;;;5118672;27;20630;-72
2023/06/15 06:26:46;;;;;;;3.17;2.87;;;17.80;63.20;;;;;;5111631;27;20650;-72
2023/06/15 06:29:13;;;;;;;3.63;3.33;;;17.80;62.60;;;;;;5118919;27;20633;-72
2023/06/15 06:31:40;;;;;;;3.80;3.50;;;17.80;62.20;;;;;;5117399;27;21087;-72
2023/06/15 06:34:06;;;;;;;2.90;2.70;;;17.70;61.60;;;;;;5116895;27;20961;-72
2023/06/15 06:36:35;;;;;;;3.40;3.20;;;17.70;61.60;;;;;;5117291;27;20656;-72
2023/06/15 06:39:01;;;;;;;3.97;3.03;;;17.80;62.20;;;;;;5118433;27;20618;-72
2023/06/15 06:41:28;;;;;;;2.80;2.60;;;17.90;62.20;;;;;;5115758;27;20651;-72
2023/06/15 06:43:55;;;;;;;4.67;4.27;;;17.90;62.20;;;;;;5119331;28;20714;-72
2023/06/15 06:46:22;;;;;;;3.47;3.17;;;17.90;61.80;;;;;;5118194;28;20677;-72
2023/06/15 06:48:50;;;;;;;3.80;3.50;;;17.90;61.30;;;;;;5117184;28;21002;-72
2023/06/15 06:51:17;;;;;;;3.77;2.97;;;17.90;61.30;;;;;;5116189;28;20643;-72
2023/06/15 06:53:45;;;;;;;4.03;3.37;;;17.90;60.20;;;;;;5115834;28;20624;-72
2023/06/15 06:56:12;;;;;;;3.73;3.30;;;17.90;60.20;;;;;;5107881;27;20639;-72
2023/06/15 06:58:38;;;;;;;2.50;2.30;;;18.20;61.30;;;;;;5116006;27;20617;-72
2023/06/15 07:01:05;;;;;;;3.83;3.20;;;18.50;61.10;;;;;;5117505;27;20981;-72
2023/06/15 07:03:32;;;;;;;3.17;2.93;;;18.80;61.40;;;;;;5119632;28;20978;-72
2023/06/15 07:05:59;;;;;;;3.57;3.10;;;19.00;59.30;;;;;;5118730;28;20681;-72
2023/06/15 07:08:26;;;;;;;3.53;3.23;;;19.00;59.40;;;;;;5115954;28;21128;-72
2023/06/15 07:10:54;;;;;;;3.87;3.57;;;18.90;58.90;;;;;;5115303;28;20662;-72
2023/06/15 07:13:21;;;;;;;4.10;3.70;;;19.10;59.00;;;;;;5118352;28;21191;-72
2023/06/15 07:15:49;;;;;;;4.63;3.27;;;19.00;57.90;;;;;;5119348;28;20658;-72
2023/06/15 07:18:16;;;;;;;3.50;3.20;;;19.00;58.70;;;;;;5119353;27;20642;-72
2023/06/15 07:20:43;;;;;;;4.87;3.20;;;19.00;58.70;;;;;;5118762;27;20651;-72
2023/06/15 07:23:09;;;;;;;3.03;2.73;;;19.00;59.10;;;;;;5119912;27;20623;-72
2023/06/15 07:25:36;;;;;;;3.10;2.80;;;19.00;58.70;;;;;;5122624;27;21064;-72
2023/06/15 07:28:05;;;;;;;7.47;3.47;;;19.20;58.60;;;;;;5123088;27;20615;-72
2023/06/15 07:30:32;;;;;;;4.47;4.07;;;19.40;58.60;;;;;;5120251;27;20658;-72
2023/06/15 07:32:58;;;;;;;5.40;3.57;;;19.40;58.70;;;;;;5119430;27;20627;-72
2023/06/15 07:35:25;;;;;;;3.10;2.90;;;19.40;59.60;;;;;;5119067;27;20636;-72
2023/06/15 07:37:52;;;;;;;4.40;3.30;;;19.90;58.70;;;;;;5123288;27;20959;-72
2023/06/15 07:40:19;;;;;;;4.30;3.33;;;20.20;57.90;;;;;;5122232;27;20687;-72
2023/06/15 07:42:45;;;;;;;4.67;4.27;;;20.20;57.10;;;;;;5120595;27;20710;-73
2023/06/15 07:45:14;;;;;;;3.30;3.00;;;19.90;57.00;;;;;;5118451;27;20863;-72
2023/06/15 07:47:42;;;;;;;3.10;2.90;;;19.90;57.70;;;;;;5119336;27;20721;-72
2023/06/15 07:50:09;;;;;;;3.50;3.20;;;20.30;57.50;;;;;;5122445;27;20614;-72
2023/06/15 07:52:36;;;;;;;3.70;3.40;;;20.30;57.60;;;;;;5122656;27;20734;-72
2023/06/15 07:55:03;;;;;;;3.57;3.27;;;20.40;56.80;;;;;;5119853;27;20623;-72
2023/06/15 07:57:30;;;;;;;3.77;3.47;;;20.30;57.80;;;;;;5119064;27;20620;-72
2023/06/15 07:59:58;;;;;;;4.33;3.57;;;20.60;57.20;;;;;;5124374;27;20629;-72
2023/06/15 08:02:26;;;;;;;4.90;3.53;;;20.80;57.00;;;;;;5118739;27;20751;-72
2023/06/15 08:04:53;;;;;;;3.77;3.47;;;20.80;56.20;;;;;;5119289;27;20623;-72
2023/06/15 08:07:20;;;;;;;3.77;3.47;;;20.90;56.30;;;;;;5111000;27;20694;-72
2023/06/15 08:09:47;;;;;;;4.33;3.93;;;20.60;57.00;;;;;;5118329;27;20626;-72
2023/06/15 08:12:14;;;;;;;3.90;3.00;;;20.70;56.80;;;;;;5120753;27;20655;-72
2023/06/15 08:14:41;;;;;;;3.37;3.07;;;20.70;56.80;;;;;;5122063;27;20611;-72
2023/06/15 08:17:08;;;;;;;4.70;3.30;;;20.90;56.70;;;;;;5121517;27;21007;-72
2023/06/15 08:19:36;;;;;;;3.53;3.27;;;21.00;56.30;;;;;;5118418;27;20611;-72
2023/06/15 08:22:03;;;;;;;3.83;3.50;;;20.90;55.60;;;;;;5118930;27;20675;-72
2023/06/15 08:24:30;;;;;;;4.20;3.80;;;21.10;56.50;;;;;;5121079;27;20668;-72
2023/06/15 08:26:56;;;;;;;4.53;3.90;;;21.30;55.70;;;;;;5121684;27;20673;-73
2023/06/15 08:29:23;;;;;;;3.83;3.53;;;21.60;55.30;;;;;;5119749;27;20611;-72
2023/06/15 08:31:50;;;;;;;3.50;3.20;;;21.50;55.90;;;;;;5118249;27;20986;-72
2023/06/15 08:34:17;;;;;;;3.60;3.30;;;21.20;54.60;;;;;;5118565;27;20624;-73
2023/06/15 08:36:45;;;;;;;3.63;3.33;;;21.60;54.60;;;;;;5121348;27;20652;-72
2023/06/15 08:39:12;;;;;;;3.73;3.43;;;21.70;55.00;;;;;;5121318;27;20623;-72
2023/06/15 08:41:39;;;;;;;4.10;3.63;;;21.60;54.60;;;;;;5116875;27;20647;-72
2023/06/15 08:44:06;;;;;;;4.20;3.80;;;21.60;54.90;;;;;;5121110;27;20617;-71
2023/06/15 08:46:33;;;;;;;4.90;3.53;;;21.70;54.10;;;;;;5120286;27;20670;-72
2023/06/15 08:49:01;;;;;;;3.97;3.60;;;21.80;55.40;;;;;;5109530;27;20620;-72
2023/06/15 08:51:28;;;;;;;4.53;4.13;;;21.90;53.80;;;;;;5118221;27;20644;-72
2023/06/15 08:53:56;;;;;;;4.03;3.40;;;21.80;54.20;;;;;;5120451;27;20669;-72
2023/06/15 08:56:23;;;;;;;3.70;3.33;;;21.80;55.00;;;;;;5120850;27;20654;-72
2023/06/15 08:58:50;;;;;;;4.07;3.33;;;22.20;53.90;;;;;;5118578;27;20624;-72
2023/06/15 09:01:22;;;;;;;4.00;3.60;;;22.50;53.60;;;;;;5121030;27;20663;-72
2023/06/15 09:03:51;;;;;;;3.80;3.50;;;22.50;53.60;;;;;;5121312;27;20623;-71
2023/06/15 09:06:19;;;;;;;3.37;3.07;;;22.20;53.20;;;;;;5109718;27;21209;-71
2023/06/15 09:08:46;;;;;;;3.80;3.50;;;22.40;53.90;;;;;;5117813;27;21247;-70
2023/06/15 09:11:14;;;;;;;3.83;3.53;;;22.40;53.00;;;;;;5118988;27;20648;-72
2023/06/15 09:13:41;;;;;;;3.90;3.30;;;22.30;52.70;;;;;;5121186;27;20665;-72
2023/06/15 09:16:09;;;;;;;4.00;3.70;;;22.70;53.50;;;;;;5120412;27;20658;-72
2023/06/15 09:18:44;;;;;;;3.63;3.43;;;23.20;52.30;;;;;;5117505;27;20647;-72
2023/06/15 09:21:13;;;;;;;3.33;3.10;;;23.10;51.70;;;;;;5117528;27;21274;-72
2023/06/15 09:23:41;;;;;;;3.93;3.60;;;23.30;51.20;;;;;;5120409;27;20985;-72
2023/06/15 09:26:09;;;;;;;2.90;2.70;;;23.60;49.70;;;;;;5120413;27;21016;-72
2023/06/15 09:28:45;;;;;;;3.33;3.13;;;23.80;49.00;;;;;;5118110;27;20651;-72
2023/06/15 09:31:27;;;;;;;3.70;3.40;;;23.90;49.00;;;;;;5116984;27;20659;-72
2023/06/15 09:34:02;;;;;;;3.37;3.17;;;23.80;49.10;;;;;;5109724;27;20642;-72
2023/06/15 09:36:34;;;;;;;4.10;3.80;;;23.70;50.10;;;;;;5118205;27;20691;-72
2023/06/15 09:39:01;;;;;;;3.30;2.63;;;23.90;49.30;;;;;;5120131;27;20704;-71
2023/06/15 09:41:28;;;;;;;3.77;3.47;;;23.90;51.00;;;;;;5115529;27;20670;-71
2023/06/15 09:43:56;;;;;;;3.93;3.63;;;24.20;50.80;;;;;;5108661;27;20621;-71
2023/06/15 09:46:28;;;;;;;4.30;4.00;;;24.20;50.10;;;;;;5115714;27;20666;-71
2023/06/15 09:48:55;;;;;;;4.07;3.60;;;24.20;49.00;;;;;;5119252;27;21087;-71
2023/06/15 09:51:23;;;;;;;4.13;3.73;;;23.60;49.90;;;;;;5120241;27;20651;-71
2023/06/15 09:53:52;;;;;;;4.67;4.27;;;23.50;50.20;;;;;;5119413;27;20691;-71
2023/06/15 09:56:21;;;;;;;3.47;3.17;;;23.60;49.00;;;;;;5116667;27;20648;-71
2023/06/15 09:58:48;;;;;;;4.13;3.73;;;23.50;49.90;;;;;;5116552;27;20613;-71
2023/06/15 10:01:19;;;;;;;3.13;2.83;;;23.30;49.20;;;;;;5119216;27;21086;-72
2023/06/15 10:03:53;;;;;;;3.83;3.53;;;23.20;48.90;;;;;;5120349;27;20623;-71
2023/06/15 10:06:22;;;;;;;3.83;3.53;;;23.20;48.50;;;;;;5108529;27;21021;-71
2023/06/15 10:08:54;;;;;;;3.50;3.20;;;23.20;48.20;;;;;;5116542;27;20636;-71
2023/06/15 10:11:21;;;;;;;3.93;3.60;;;23.10;48.80;;;;;;5119049;27;20631;-71
2023/06/15 10:13:51;;;;;;;4.60;4.20;;;23.10;48.80;;;;;;5119834;27;20738;-71
2023/06/15 10:16:21;;;;;;;3.63;3.30;;;23.70;47.90;;;;;;5117917;27;20700;-71
2023/06/15 10:18:53;;;;;;;3.70;3.40;;;24.10;47.80;;;;;;5116709;27;20613;-71
2023/06/15 10:21:26;;;;;;;3.70;3.40;;;24.40;47.30;;;;;;5118192;27;20656;-71
2023/06/15 10:23:57;;;;;;;4.17;3.20;;;24.70;45.80;;;;;;5119865;27;20633;-71
2023/06/15 10:26:23;;;;;;;3.03;2.83;;;24.80;45.80;;;;;;5118456;27;20676;-71
2023/06/15 10:28:56;;;;;;;3.07;2.87;;;25.00;46.20;;;;;;5115834;27;20616;-71
2023/06/15 10:31:30;;;;;;;3.73;3.43;;;25.30;45.20;;;;;;5116531;27;21198;-71
2023/06/15 10:34:04;;;;;;;3.17;2.97;;;25.50;44.60;;;;;;5119725;27;20615;-71
2023/06/15 10:36:38;;;;;;;3.40;3.10;;;25.70;45.20;;;;;;5118353;28;21293;-71
2023/06/15 10:39:13;;;;;;;4.17;3.77;;;25.80;44.50;;;;;;5115857;28;20616;-71
2023/06/15 10:41:40;;;;;;;3.93;3.60;;;26.10;44.40;;;;;;5118132;28;20652;-71
2023/06/15 10:44:07;;;;;;;3.73;3.53;;;26.20;43.80;;;;;;5119988;28;20620;-71
2023/06/15 10:46:36;;;;;;;5.23;3.07;;;25.80;43.10;;;;;;5118547;28;20667;-71
2023/06/15 10:49:05;;;;;;;3.80;3.33;;;25.40;44.60;;;;;;5106912;28;20630;-71
2023/06/15 10:51:34;;;;;;;3.00;2.80;;;25.20;45.00;;;;;;5116816;28;20647;-71
2023/06/15 10:54:03;;;;;;;3.97;3.60;;;25.50;42.90;;;;;;5123144;27;20625;-71
2023/06/15 10:56:30;;;;;;;3.27;3.00;;;25.70;43.60;;;;;;5123725;27;20754;-71
2023/06/15 10:58:59;;;;;;;2.90;2.70;;;25.80;43.00;;;;;;5120292;27;20620;-71
2023/06/15 11:01:27;;;;;;;3.60;2.83;;;25.90;43.90;;;;;;5123331;27;20744;-72
2023/06/15 11:03:56;;;;;;;4.47;4.07;;;26.50;43.20;;;;;;5123091;27;20656;-72
2023/06/15 11:06:31;;;;;;;2.87;2.70;;;26.60;43.50;;;;;;5120343;27;20671;-72
2023/06/15 11:09:02;;;;;;;3.40;3.20;;;26.40;44.10;;;;;;5119862;27;20616;-72
2023/06/15 11:11:33;;;;;;;3.10;2.90;;;25.90;43.00;;;;;;5123382;27;20651;-72
2023/06/15 11:14:03;;;;;;;3.27;2.70;;;25.80;41.80;;;;;;5123183;27;20623;-72
2023/06/15 11:16:31;;;;;;;3.43;2.47;;;25.60;43.30;;;;;;5112465;27;20648;-72
2023/06/15 11:19:24;;;;;;;2.50;2.30;;;25.40;42.00;;;;;;5119655;27;20719;-72
2023/06/15 11:22:04;;;;;;;7.67;3.30;;;24.90;43.90;;;;;;5114076;27;21014;-72
2023/06/15 11:24:36;;;;;;;3.37;2.83;;;24.70;43.40;;;;;;5121919;27;20628;-72
2023/06/15 11:27:04;;;;;;;3.87;3.57;;;24.80;43.70;;;;;;5122958;27;20729;-72
2023/06/15 11:29:33;;;;;;;3.17;2.97;;;24.40;45.40;;;;;;5120548;27;20711;-72
2023/06/15 11:32:02;;;;;;;3.87;3.57;;;23.80;45.40;;;;;;5119338;27;20660;-72
2023/06/15 11:34:31;;;;;;;3.30;3.00;;;23.80;46.10;;;;;;5120601;27;20624;-71
2023/06/15 11:36:59;;;;;;;4.07;3.77;;;23.70;47.00;;;;;;5122182;27;21236;-72
2023/06/15 11:39:28;;;;;;;4.33;3.87;;;23.70;45.70;;;;;;5122401;27;20718;-72
2023/06/15 11:41:56;;;;;;;3.93;3.53;;;23.80;47.20;;;;;;5110775;27;20642;-72
2023/06/15 11:44:23;;;;;;;3.70;3.30;;;24.60;47.70;;;;;;5122903;27;20722;-72
2023/06/15 11:46:54;;;;;;;3.33;3.03;;;25.70;47.40;;;;;;5119372;27;21202;-72
2023/06/15 11:49:21;;;;;;;3.70;3.50;;;26.70;45.20;;;;;;5118585;27;20621;-71
2023/06/15 11:51:52;;;;;;;2.70;2.50;;;27.50;42.30;;;;;;5120111;27;20681;-71
2023/06/15 11:54:23;;;;;;;4.60;3.23;;;27.80;43.30;;;;;;5122879;27;20631;-71
2023/06/15 11:56:50;;;;;;;3.70;3.40;;;28.60;42.50;;;;;;5121983;27;20643;-71
2023/06/15 11:59:18;;;;;;;3.93;3.37;;;29.40;40.40;;;;;;5120505;27;20622;-71
2023/06/15 12:01:45;;;;;;;2.67;2.47;;;30.50;38.50;;;;;;5122521;27;20650;-71
2023/06/15 12:04:13;;;;;;;3.20;2.90;;;30.80;37.40;;;;;;5118123;27;20708;-72
2023/06/15 12:06:41;;;;;;;3.10;2.90;;;30.80;36.60;;;;;;5119341;27;20675;-72
2023/06/15 12:09:10;;;;;;;3.23;3.00;;;30.80;36.90;;;;;;5119996;27;20629;-72
2023/06/15 12:11:37;;;;;;;2.70;2.57;;;31.50;36.50;;;;;;5122481;27;21031;-72
2023/06/15 12:14:07;;;;;;;2.80;2.60;;;32.40;35.10;;;;;;5121513;27;20650;-72
2023/06/15 12:16:35;;;;;;;2.93;2.73;;;33.00;35.40;;;;;;5118415;27;20723;-72
2023/06/15 12:19:03;;;;;;;2.93;2.60;;;33.80;35.60;;;;;;5118443;27;20619;-71
2023/06/15 12:21:32;;;;;;;2.83;2.73;;;33.50;34.80;;;;;;5122004;27;20746;-72
2023/06/15 12:23:59;;;;;;;3.13;2.93;;;34.30;32.50;;;;;;5122124;27;20631;-72
2023/06/15 12:26:33;;;;;;;3.27;3.07;;;33.80;32.80;;;;;;5120067;27;20674;-72
2023/06/15 12:29:00;;;;;;;2.67;2.57;;;32.90;34.20;;;;;;5117320;27;21237;-72
2023/06/15 12:31:34;;;;;;;3.40;3.20;;;31.80;34.50;;;;;;5119224;27;20656;-71
2023/06/15 12:34:07;;;;;;;3.30;2.90;;;30.90;35.80;;;;;;5122294;27;20715;-72
2023/06/15 12:36:34;;;;;;;3.00;2.80;;;31.90;35.00;;;;;;5120079;27;20651;-72
2023/06/15 12:39:05;;;;;;;3.07;2.87;;;32.10;33.70;;;;;;5118255;27;20621;-71
2023/06/15 12:41:33;;;;;;;2.80;2.60;;;32.10;36.00;;;;;;5118180;27;20647;-72
2023/06/15 12:44:00;;;;;;;2.83;2.63;;;33.20;34.90;;;;;;5121917;27;21106;-72
2023/06/15 12:46:27;;;;;;;2.87;2.67;;;33.90;33.20;;;;;;5120683;27;20737;-72
2023/06/15 12:48:54;;;;;;;2.57;2.47;;;34.00;33.20;;;;;;5118866;27;20623;-72
2023/06/15 12:51:20;;;;;;;2.83;2.63;;;33.70;32.90;;;;;;5118075;27;20709;-72
2023/06/15 12:53:47;;;;;;;2.40;2.20;;;34.20;32.30;;;;;;5119155;27;20620;-72